Map

Track Data

SID SEASON NUMBER BASIN SUBBASIN NAME ISO_TIME NATURE LAT LON WMO_WIND WMO_PRES WMO_AGENCY TRACK_TYPE DIST2LAND LANDFALL IFLAG USA_AGENCY USA_ATCF_ID USA_LAT USA_LON USA_RECORD USA_STATUS USA_WIND USA_PRES USA_SSHS USA_R34_NE USA_R34_SE USA_R34_SW USA_R34_NW USA_R50_NE USA_R50_SE USA_R50_SW USA_R50_NW USA_R64_NE USA_R64_SE USA_R64_SW USA_R64_NW USA_POCI USA_ROCI USA_RMW USA_EYE TOKYO_LAT TOKYO_LON TOKYO_GRADE TOKYO_WIND TOKYO_PRES TOKYO_R50_DIR TOKYO_R50_LONG TOKYO_R50_SHORT TOKYO_R30_DIR TOKYO_R30_LONG TOKYO_R30_SHORT TOKYO_LAND CMA_LAT CMA_LON CMA_CAT CMA_WIND CMA_PRES HKO_LAT HKO_LON HKO_CAT HKO_WIND HKO_PRES NEWDELHI_LAT NEWDELHI_LON NEWDELHI_GRADE NEWDELHI_WIND NEWDELHI_PRES NEWDELHI_CI NEWDELHI_DP NEWDELHI_POCI REUNION_LAT REUNION_LON REUNION_TYPE REUNION_WIND REUNION_PRES REUNION_TNUM REUNION_CI REUNION_RMW REUNION_R34_NE REUNION_R34_SE REUNION_R34_SW REUNION_R34_NW REUNION_R50_NE REUNION_R50_SE REUNION_R50_SW REUNION_R50_NW REUNION_R64_NE REUNION_R64_SE REUNION_R64_SW REUNION_R64_NW BOM_LAT BOM_LON BOM_TYPE BOM_WIND BOM_PRES BOM_TNUM BOM_CI BOM_RMW BOM_R34_NE BOM_R34_SE BOM_R34_SW BOM_R34_NW BOM_R50_NE BOM_R50_SE BOM_R50_SW BOM_R50_NW BOM_R64_NE BOM_R64_SE BOM_R64_SW BOM_R64_NW BOM_ROCI BOM_POCI BOM_EYE BOM_POS_METHOD BOM_PRES_METHOD NADI_LAT NADI_LON NADI_CAT NADI_WIND NADI_PRES WELLINGTON_LAT WELLINGTON_LON WELLINGTON_WIND WELLINGTON_PRES DS824_LAT DS824_LON DS824_STAGE DS824_WIND DS824_PRES TD9636_LAT TD9636_LON TD9636_STAGE TD9636_WIND TD9636_PRES TD9635_LAT TD9635_LON TD9635_WIND TD9635_PRES TD9635_ROCI NEUMANN_LAT NEUMANN_LON NEUMANN_CLASS NEUMANN_WIND NEUMANN_PRES MLC_LAT MLC_LON MLC_CLASS MLC_WIND MLC_PRES USA_GUST BOM_GUST BOM_GUST_PER REUNION_GUST REUNION_GUST_PER USA_SEAHGT USA_SEARAD_NE USA_SEARAD_SE USA_SEARAD_SW USA_SEARAD_NW STORM_SPEED STORM_DIR
1929365S16061 1930 77 SI MM NOT_NAMED 1929-12-31 06:00:00 NR -16.4000 60.7000 reunion main 521 512 _____O________ -1 -16.4000 60.7000 99 9.90000 3 156
1929365S16061 1930 77 SI MM NOT_NAMED 1929-12-31 09:00:00 NR -16.5255 60.7600 main 518 510 _____P________ -1 -16.5255 60.7600 99 2 140
1929365S16061 1930 77 SI MM NOT_NAMED 1929-12-31 12:00:00 NR -16.5659 60.8420 main 510 508 _____P____O___ -1 -16.6545 60.8227 99 -16.3000 60.9000 7 3 142
1929365S16061 1930 77 SI MM NOT_NAMED 1929-12-31 15:00:00 NR -16.7469 60.9420 main 508 498 _____P____P___ -1 -16.7906 60.8906 99 -16.6595 61.0449 7 5 152
1929365S16061 1930 77 SI MM NOT_NAMED 1929-12-31 18:00:00 NR -16.9706 61.0631 main 498 490 _____P____P___ -1 -16.9373 60.9663 99 -17.0151 61.1921 7 5 153
1929365S16061 1930 77 SI MM NOT_NAMED 1929-12-31 21:00:00 NR -17.2306 61.1978 main 491 477 _____P____P___ -1 -17.0980 61.0525 99 -17.3632 61.3432 7 6 154
1929365S16061 1930 77 SI MM NOT_NAMED 1930-01-01 00:00:00 NR -17.4882 61.3258 main 477 472 _____P____O___ -1 -17.2764 61.1517 99 -17.7000 61.5000 2 6 154
1929365S16061 1930 77 SI MM NOT_NAMED 1930-01-01 03:00:00 NR -17.7491 61.4653 main 481 469 _____P____P___ -1 -17.4758 61.2666 99 -18.0224 61.6639 2 6 152
1929365S16061 1930 77 SI MM NOT_NAMED 1930-01-01 06:00:00 NR -18.0150 61.6176 reunion main 472 466 _____O____P___ -1 -17.7000 61.4000 99 9.90000 -18.3299 61.8352 2 6 151
1929365S16061 1930 77 SI MM NOT_NAMED 1930-01-01 09:00:00 NR -18.2865 61.7837 main 475 470 _____P____P___ -1 -17.9506 61.5535 99 -18.6224 62.0139 2 6 149
1929365S16061 1930 77 SI MM NOT_NAMED 1930-01-01 12:00:00 NR -18.5611 61.9622 main 479 475 _____P____O___ -1 -18.2222 61.7243 99 -18.9000 62.2000 2 7 148
1929365S16061 1930 77 SI MM NOT_NAMED 1930-01-01 15:00:00 NR -18.8422 62.1549 main 490 483 _____P____P___ -1 -18.5079 61.9089 99 -19.1766 62.4009 2 7 146
1929365S16061 1930 77 SI MM NOT_NAMED 1930-01-01 18:00:00 NR -19.1190 62.3553 main 499 496 _____P____P___ -1 -18.8005 62.1032 99 -19.4375 62.6075 2 7 145
1929365S16061 1930 77 SI MM NOT_NAMED 1930-01-01 21:00:00 NR -19.3864 62.5569 main 511 509 _____P____P___ -1 -19.0930 62.3034 99 -19.6797 62.8103 2 6 144
1929365S16061 1930 77 SI MM NOT_NAMED 1930-01-02 00:00:00 NR -19.6392 62.7528 main 528 525 _____P____O___ -1 -19.3785 62.5056 99 -19.9000 63.0000 2 6 144
1929365S16061 1930 77 SI MM NOT_NAMED 1930-01-02 03:00:00 NR -19.8772 62.9373 main 534 534 _____P____P___ -1 -19.6498 62.7059 99 -20.1046 63.1687 2 6 143
1929365S16061 1930 77 SI MM NOT_NAMED 1930-01-02 06:00:00 NR -20.0937 63.1114 reunion main 553 553 _____O____P___ -1 -19.9000 62.9000 99 9.90000 -20.2874 63.3228 2 5 142
1929365S16061 1930 77 SI MM NOT_NAMED 1930-01-02 09:00:00 NR -20.2797 63.2680 main 573 573 _____P____P___ -1 -20.1079 63.0706 99 -20.4515 63.4655 2 5 141
1929365S16061 1930 77 SI MM NOT_NAMED 1930-01-02 12:00:00 NR -20.4487 63.4182 main 583 583 _____P____O___ -1 -20.2974 63.2365 99 -20.6000 63.6000 2 4 140
1929365S16061 1930 77 SI MM NOT_NAMED 1930-01-02 15:00:00 NR -20.6032 63.5596 main 605 605 _____P____P___ -1 -20.4711 63.3989 99 -20.7352 63.7203 2 4 138
1929365S16061 1930 77 SI MM NOT_NAMED 1930-01-02 18:00:00 NR -20.7446 63.6972 main 616 616 _____P____P___ -1 -20.6319 63.5589 99 -20.8573 63.8354 2 4 137
1929365S16061 1930 77 SI MM NOT_NAMED 1930-01-02 21:00:00 NR -20.8791 63.8378 main 627 627 _____P____P___ -1 -20.7825 63.7179 99 -20.9758 63.9578 2 4 135
1929365S16061 1930 77 SI MM NOT_NAMED 1930-01-03 00:00:00 NR -21.0128 63.9884 main 649 649 _____P____O___ -1 -20.9255 63.8769 99 -21.1000 64.1000 2 4 133
1929365S16061 1930 77 SI MM NOT_NAMED 1930-01-03 03:00:00 NR -21.1553 64.1578 main 672 672 _____P____P___ -1 -21.0638 64.0372 99 -21.2469 64.2784 2 4 131
1929365S16061 1930 77 SI MM NOT_NAMED 1930-01-03 06:00:00 NR -21.3000 64.3387 reunion main 684 684 _____O____P___ -1 -21.2000 64.2000 99 9.90000 -21.4000 64.4774 2 5 131
1929365S16061 1930 77 SI MM NOT_NAMED 1930-01-03 09:00:00 NR -21.4567 64.5357 main 708 708 _____P____P___ -1 -21.3603 64.3836 99 -21.5531 64.6878 2 5 130
1929365S16061 1930 77 SI MM NOT_NAMED 1930-01-03 12:00:00 NR -21.6090 64.7355 main 730 730 _____P____O___ -1 -21.5180 64.5710 99 -21.7000 64.9000 2 5 129
1929365S16061 1930 77 SI MM NOT_NAMED 1930-01-03 15:00:00 NR -21.7536 64.9327 main 755 755 _____P____P___ -1 -21.6712 64.7589 99 -21.8360 65.1065 2 4 129
1929365S16061 1930 77 SI MM NOT_NAMED 1930-01-03 18:00:00 NR -21.8799 65.1000 main 777 777 _____P____P___ -1 -21.8178 64.9445 99 -21.9626 65.3074 2 4 130
1929365S16061 1930 77 SI MM NOT_NAMED 1930-01-03 21:00:00 NR -21.9983 65.2512 main 800 800 _____P____P___ -1 -21.9560 65.1245 99 -22.0829 65.5045 2 3 132
1929365S16061 1930 77 SI MM NOT_NAMED 1930-01-04 00:00:00 NR -22.1069 65.3767 main 812 812 _____P____O___ -1 -22.0837 65.2959 99 -22.2000 65.7000 2 3 136
1929365S16061 1930 77 SI MM NOT_NAMED 1930-01-04 03:00:00 NR -22.1990 65.4554 main 825 825 _____P________ -1 -22.1990 65.4554 99 2 3 133
1929365S16061 1930 77 SI MM NOT_NAMED 1930-01-04 06:00:00 NR -22.3000 65.6000 reunion main 838 838 _____O________ -1 -22.3000 65.6000 99 9.90000 2 3 127
1929365S16061 1930 77 SI MM NOT_NAMED 1930-01-04 09:00:00 NR -22.3854 65.7274 main 850 850 _____P________ -1 -22.3854 65.7274 99 2 3 125
1929365S16061 1930 77 SI MM NOT_NAMED 1930-01-04 12:00:00 NR -22.4566 65.8388 main 863 863 _____P________ -1 -22.4566 65.8388 99 2 124
1929365S16061 1930 77 SI MM NOT_NAMED 1930-01-04 15:00:00 NR -22.5157 65.9366 main 873 873 _____P________ -1 -22.5157 65.9366 99 2 123
1929365S16061 1930 77 SI MM NOT_NAMED 1930-01-04 18:00:00 NR -22.5647 66.0230 main 886 886 _____P________ -1 -22.5647 66.0230 99 2 121
1929365S16061 1930 77 SI MM NOT_NAMED 1930-01-04 21:00:00 NR -22.6056 66.1003 main 896 896 _____P________ -1 -22.6056 66.1003 99 2 119
1929365S16061 1930 77 SI MM NOT_NAMED 1930-01-05 00:00:00 NR -22.6404 66.1706 main 906 906 _____P________ -1 -22.6404 66.1706 99 1 117
1929365S16061 1930 77 SI MM NOT_NAMED 1930-01-05 03:00:00 NR -22.6712 66.2365 main 909 909 _____P________ -1 -22.6712 66.2365 99 1 117
1929365S16061 1930 77 SI MM NOT_NAMED 1930-01-05 06:00:00 NR -22.7000 66.3000 reunion main 919 _____O________ -1 -22.7000 66.3000 99 9.90000 1 115

About IBTrACS Database

This database is a web-friendly format of International Best Track Archive for Climate Stewardship (IBTrACS), a global best track data archive curated by NOAA dating back to 1842.

Updated: 2021-10-21